sensor_id;sensor_type;location;lat;lon;timestamp;temperature;humidity
16327;DHT22;34812;49.846;9.610;2023-03-01T00:01:01;-1.10;99.90
16327;DHT22;34812;49.846;9.610;2023-03-01T00:02:03;-1.00;99.90
16327;DHT22;34812;49.846;9.610;2023-03-01T00:03:05;-1.00;99.90
16327;DHT22;34812;49.846;9.610;2023-03-01T00:04:08;-1.00;99.90
16327;DHT22;34812;49.846;9.610;2023-03-01T00:05:08;-1.10;99.90
16327;DHT22;34812;49.846;9.610;2023-03-01T00:06:10;-1.10;99.90
16327;DHT22;34812;49.846;9.610;2023-03-01T00:07:11;-1.10;99.90
16327;DHT22;34812;49.846;9.610;2023-03-01T00:08:13;-1.00;99.90
16327;DHT22;34812;49.846;9.610;2023-03-01T00:09:15;-1.00;99.90
16327;DHT22;34812;49.846;9.610;2023-03-01T00:10:17;-1.00;99.90
16327;DHT22;34812;49.846;9.610;2023-03-01T00:11:20;-1.10;99.90
16327;DHT22;34812;49.846;9.610;2023-03-01T00:12:22;-1.00;99.90
16327;DHT22;34812;49.846;9.610;2023-03-01T00:13:23;-1.00;99.90
16327;DHT22;34812;49.846;9.610;2023-03-01T00:14:24;-1.00;99.90
16327;DHT22;34812;49.846;9.610;2023-03-01T00:15:25;-1.00;99.90
16327;DHT22;34812;49.846;9.610;2023-03-01T00:16:29;-1.10;99.90
16327;DHT22;34812;49.846;9.610;2023-03-01T00:17:30;-1.00;99.90
16327;DHT22;34812;49.846;9.610;2023-03-01T00:18:32;-1.00;99.90
16327;DHT22;34812;49.846;9.610;2023-03-01T00:19:35;-1.00;99.90
16327;DHT22;34812;49.846;9.610;2023-03-01T00:20:36;-1.00;99.90
16327;DHT22;34812;49.846;9.610;2023-03-01T00:21:37;-1.00;99.90
16327;DHT22;34812;49.846;9.610;2023-03-01T00:22:39;-1.00;99.90
16327;DHT22;34812;49.846;9.610;2023-03-01T00:23:40;-1.10;99.90
16327;DHT22;34812;49.846;9.610;2023-03-01T00:24:42;-1.10;99.90
16327;DHT22;34812;49.846;9.610;2023-03-01T00:25:43;-1.10;99.90
16327;DHT22;34812;49.846;9.610;2023-03-01T00:26:45;-1.20;99.90
16327;DHT22;34812;49.846;9.610;2023-03-01T00:27:47;-1.20;99.90
16327;DHT22;34812;49.846;9.610;2023-03-01T00:28:49;-1.20;99.90
16327;DHT22;34812;49.846;9.610;2023-03-01T00:29:50;-1.20;99.90
16327;DHT22;34812;49.846;9.610;2023-03-01T00:30:52;-1.20;99.90
16327;DHT22;34812;49.846;9.610;2023-03-01T00:31:52;-1.20;99.90
16327;DHT22;34812;49.846;9.610;2023-03-01T00:32:54;-1.20;99.90
16327;DHT22;34812;49.846;9.610;2023-03-01T00:33:56;-1.30;99.90
16327;DHT22;34812;49.846;9.610;2023-03-01T00:35:00;-1.30;99.90
16327;DHT22;34812;49.846;9.610;2023-03-01T00:36:00;-1.30;99.90
16327;DHT22;34812;49.846;9.610;2023-03-01T00:37:02;-1.40;99.90
16327;DHT22;34812;49.846;9.610;2023-03-01T00:38:06;-1.40;99.90
16327;DHT22;34812;49.846;9.610;2023-03-01T00:39:11;-1.50;99.90
16327;DHT22;34812;49.846;9.610;2023-03-01T00:40:13;-1.50;99.90
16327;DHT22;34812;49.846;9.610;2023-03-01T00:41:18;-1.60;99.90
16327;DHT22;34812;49.846;9.610;2023-03-01T00:42:18;-1.70;99.90
16327;DHT22;34812;49.846;9.610;2023-03-01T00:43:21;-1.70;99.90
16327;DHT22;34812;49.846;9.610;2023-03-01T00:44:21;-1.80;99.90
16327;DHT22;34812;49.846;9.610;2023-03-01T00:45:24;-1.80;99.90
16327;DHT22;34812;49.846;9.610;2023-03-01T00:46:26;-1.90;99.90
16327;DHT22;34812;49.846;9.610;2023-03-01T00:47:30;-1.90;99.90
16327;DHT22;34812;49.846;9.610;2023-03-01T00:48:31;-2.00;99.90
16327;DHT22;34812;49.846;9.610;2023-03-01T00:49:32;-2.00;99.90
16327;DHT22;34812;49.846;9.610;2023-03-01T00:50:35;-2.00;99.90
16327;DHT22;34812;49.846;9.610;2023-03-01T00:51:36;-2.00;99.90
16327;DHT22;34812;49.846;9.610;2023-03-01T00:52:37;-2.10;99.90
16327;DHT22;34812;49.846;9.610;2023-03-01T00:53:39;-2.10;99.90
16327;DHT22;34812;49.846;9.610;2023-03-01T00:54:40;-2.10;99.90
16327;DHT22;34812;49.846;9.610;2023-03-01T00:55:42;-2.10;99.90
16327;DHT22;34812;49.846;9.610;2023-03-01T00:56:43;-2.20;99.90
16327;DHT22;34812;49.846;9.610;2023-03-01T00:57:45;-2.20;99.90
16327;DHT22;34812;49.846;9.610;2023-03-01T00:58:46;-2.20;99.90
16327;DHT22;34812;49.846;9.610;2023-03-01T00:59:48;-2.30;99.90
16327;DHT22;34812;49.846;9.610;2023-03-01T01:00:48;-2.30;99.90
16327;DHT22;34812;49.846;9.610;2023-03-01T01:01:50;-2.30;99.90
16327;DHT22;34812;49.846;9.610;2023-03-01T01:02:51;-2.40;99.90
16327;DHT22;34812;49.846;9.610;2023-03-01T01:03:54;-2.40;99.90
16327;DHT22;34812;49.846;9.610;2023-03-01T01:04:55;-2.50;99.90
16327;DHT22;34812;49.846;9.610;2023-03-01T01:05:58;-2.50;99.90
16327;DHT22;34812;49.846;9.610;2023-03-01T01:06:59;-2.40;99.90
16327;DHT22;34812;49.846;9.610;2023-03-01T01:08:01;-2.50;99.90
16327;DHT22;34812;49.846;9.610;2023-03-01T01:09:03;-2.50;99.90
16327;DHT22;34812;49.846;9.610;2023-03-01T01:10:07;-2.50;99.90
16327;DHT22;34812;49.846;9.610;2023-03-01T01:11:09;-2.50;99.90
16327;DHT22;34812;49.846;9.610;2023-03-01T01:12:11;-2.50;99.90
16327;DHT22;34812;49.846;9.610;2023-03-01T01:13:14;-2.50;99.90
16327;DHT22;34812;49.846;9.610;2023-03-01T01:14:15;-2.50;99.90
16327;DHT22;34812;49.846;9.610;2023-03-01T01:15:17;-2.60;99.90
16327;DHT22;34812;49.846;9.610;2023-03-01T01:16:19;-2.60;99.90
16327;DHT22;34812;49.846;9.610;2023-03-01T01:17:21;-2.60;99.90
16327;DHT22;34812;49.846;9.610;2023-03-01T01:18:22;-2.60;99.90
16327;DHT22;34812;49.846;9.610;2023-03-01T01:19:24;-2.70;99.90
16327;DHT22;34812;49.846;9.610;2023-03-01T01:20:25;-2.70;99.90
16327;DHT22;34812;49.846;9.610;2023-03-01T01:21:29;-2.70;99.90
16327;DHT22;34812;49.846;9.610;2023-03-01T01:22:30;-2.70;99.90
16327;DHT22;34812;49.846;9.610;2023-03-01T01:23:32;-2.70;99.90
16327;DHT22;34812;49.846;9.610;2023-03-01T01:24:33;-2.70;99.90
16327;DHT22;34812;49.846;9.610;2023-03-01T01:25:35;-2.80;99.90
16327;DHT22;34812;49.846;9.610;2023-03-01T01:26:36;-2.80;99.90
16327;DHT22;34812;49.846;9.610;2023-03-01T01:27:39;-2.80;99.90
16327;DHT22;34812;49.846;9.610;2023-03-01T01:28:40;-2.80;99.90
16327;DHT22;34812;49.846;9.610;2023-03-01T01:29:41;-2.90;99.90
16327;DHT22;34812;49.846;9.610;2023-03-01T01:30:43;-2.90;99.90
16327;DHT22;34812;49.846;9.610;2023-03-01T01:31:45;-2.90;99.90
16327;DHT22;34812;49.846;9.610;2023-03-01T01:32:46;-2.90;99.90
16327;DHT22;34812;49.846;9.610;2023-03-01T01:33:48;-2.90;99.90
16327;DHT22;34812;49.846;9.610;2023-03-01T01:34:49;-2.90;99.90
16327;DHT22;34812;49.846;9.610;2023-03-01T01:35:50;-2.90;99.90
16327;DHT22;34812;49.846;9.610;2023-03-01T01:36:53;-2.90;99.90
16327;DHT22;34812;49.846;9.610;2023-03-01T01:37:55;-2.90;99.90
16327;DHT22;34812;49.846;9.610;2023-03-01T01:38:55;-2.90;99.90
16327;DHT22;34812;49.846;9.610;2023-03-01T01:39:57;-3.00;99.90
16327;DHT22;34812;49.846;9.610;2023-03-01T01:40:59;-3.00;99.90
16327;DHT22;34812;49.846;9.610;2023-03-01T01:42:01;-3.00;99.90
16327;DHT22;34812;49.846;9.610;2023-03-01T01:43:02;-3.00;99.90
16327;DHT22;34812;49.846;9.610;2023-03-01T01:44:16;-3.00;99.90
16327;DHT22;34812;49.846;9.610;2023-03-01T01:45:29;-3.10;99.90
16327;DHT22;34812;49.846;9.610;2023-03-01T01:46:32;-3.10;99.90
16327;DHT22;34812;49.846;9.610;2023-03-01T01:47:33;-3.10;99.90
16327;DHT22;34812;49.846;9.610;2023-03-01T01:48:39;-3.10;99.90
16327;DHT22;34812;49.846;9.610;2023-03-01T01:49:43;-3.10;99.90
16327;DHT22;34812;49.846;9.610;2023-03-01T01:50:50;-3.10;99.90
16327;DHT22;34812;49.846;9.610;2023-03-01T01:52:00;-3.30;99.90
16327;DHT22;34812;49.846;9.610;2023-03-01T01:53:05;-3.00;99.90
16327;DHT22;34812;49.846;9.610;2023-03-01T01:54:10;-3.00;99.90
16327;DHT22;34812;49.846;9.610;2023-03-01T01:55:16;-2.90;99.90
16327;DHT22;34812;49.846;9.610;2023-03-01T01:56:18;-2.90;99.90
16327;DHT22;34812;49.846;9.610;2023-03-01T01:57:25;-2.90;99.90
16327;DHT22;34812;49.846;9.610;2023-03-01T01:58:29;-2.90;99.90
16327;DHT22;34812;49.846;9.610;2023-03-01T01:59:31;-2.90;99.90
16327;DHT22;34812;49.846;9.610;2023-03-01T02:00:33;-2.90;99.90
16327;DHT22;34812;49.846;9.610;2023-03-01T02:01:34;-2.90;99.90
16327;DHT22;34812;49.846;9.610;2023-03-01T02:02:36;-3.00;99.90
16327;DHT22;34812;49.846;9.610;2023-03-01T02:03:39;-3.00;99.90
16327;DHT22;34812;49.846;9.610;2023-03-01T02:04:43;-3.00;99.90
16327;DHT22;34812;49.846;9.610;2023-03-01T02:05:49;-3.00;99.90
16327;DHT22;34812;49.846;9.610;2023-03-01T02:06:58;-3.00;99.90
16327;DHT22;34812;49.846;9.610;2023-03-01T02:08:00;-3.00;99.90
16327;DHT22;34812;49.846;9.610;2023-03-01T02:09:06;-3.00;99.90
16327;DHT22;34812;49.846;9.610;2023-03-01T02:10:09;-3.00;99.90
16327;DHT22;34812;49.846;9.610;2023-03-01T02:11:13;-2.90;99.90
16327;DHT22;34812;49.846;9.610;2023-03-01T02:12:16;-2.90;99.90
16327;DHT22;34812;49.846;9.610;2023-03-01T02:13:19;-2.90;99.90
16327;DHT22;34812;49.846;9.610;2023-03-01T02:14:19;-2.90;99.90
16327;DHT22;34812;49.846;9.610;2023-03-01T02:15:21;-2.90;99.90
16327;DHT22;34812;49.846;9.610;2023-03-01T02:16:23;-2.90;99.90
16327;DHT22;34812;49.846;9.610;2023-03-01T02:17:25;-2.90;99.90
16327;DHT22;34812;49.846;9.610;2023-03-01T02:18:26;-2.90;99.90
16327;DHT22;34812;49.846;9.610;2023-03-01T02:19:40;-2.90;99.90
16327;DHT22;34812;49.846;9.610;2023-03-01T02:20:51;-2.90;99.90
16327;DHT22;34812;49.846;9.610;2023-03-01T02:22:05;-2.80;99.90
16327;DHT22;34812;49.846;9.610;2023-03-01T02:23:07;-2.90;99.90
16327;DHT22;34812;49.846;9.610;2023-03-01T02:24:17;-2.80;99.90
16327;DHT22;34812;49.846;9.610;2023-03-01T02:25:30;-2.80;99.90
16327;DHT22;34812;49.846;9.610;2023-03-01T02:26:38;-2.90;99.90
16327;DHT22;34812;49.846;9.610;2023-03-01T02:27:47;-2.90;99.90
16327;DHT22;34812;49.846;9.610;2023-03-01T02:28:51;-2.90;99.90
16327;DHT22;34812;49.846;9.610;2023-03-01T02:29:52;-2.90;99.90
16327;DHT22;34812;49.846;9.610;2023-03-01T02:30:54;-2.90;99.90
16327;DHT22;34812;49.846;9.610;2023-03-01T02:32:14;-2.90;99.90
16327;DHT22;34812;49.846;9.610;2023-03-01T02:33:16;-3.00;99.90
16327;DHT22;34812;49.846;9.610;2023-03-01T02:34:19;-3.00;99.90
16327;DHT22;34812;49.846;9.610;2023-03-01T02:35:21;-3.00;99.90
16327;DHT22;34812;49.846;9.610;2023-03-01T02:36:25;-3.00;99.90
16327;DHT22;34812;49.846;9.610;2023-03-01T02:37:28;-3.00;99.90
16327;DHT22;34812;49.846;9.610;2023-03-01T02:38:30;-3.00;99.90
16327;DHT22;34812;49.846;9.610;2023-03-01T02:39:42;-3.00;99.90
16327;DHT22;34812;49.846;9.610;2023-03-01T02:40:44;-2.90;99.90
16327;DHT22;34812;49.846;9.610;2023-03-01T02:41:47;-2.90;99.90
16327;DHT22;34812;49.846;9.610;2023-03-01T02:42:53;-2.90;99.90
16327;DHT22;34812;49.846;9.610;2023-03-01T02:43:55;-2.90;99.90
16327;DHT22;34812;49.846;9.610;2023-03-01T02:44:57;-2.80;99.90
16327;DHT22;34812;49.846;9.610;2023-03-01T02:46:02;-2.80;99.90
16327;DHT22;34812;49.846;9.610;2023-03-01T02:47:04;-2.80;99.90
16327;DHT22;34812;49.846;9.610;2023-03-01T02:48:06;-2.80;99.90
16327;DHT22;34812;49.846;9.610;2023-03-01T02:49:19;-2.70;99.90
16327;DHT22;34812;49.846;9.610;2023-03-01T02:50:41;-2.80;99.90
16327;DHT22;34812;49.846;9.610;2023-03-01T02:51:52;-2.70;99.90
16327;DHT22;34812;49.846;9.610;2023-03-01T02:52:57;-2.70;99.90
16327;DHT22;34812;49.846;9.610;2023-03-01T02:54:10;-2.80;99.90
16327;DHT22;34812;49.846;9.610;2023-03-01T02:55:15;-2.80;99.90
16327;DHT22;34812;49.846;9.610;2023-03-01T02:56:18;-2.80;99.90
16327;DHT22;34812;49.846;9.610;2023-03-01T02:57:20;-2.80;99.90
16327;DHT22;34812;49.846;9.610;2023-03-01T02:58:22;-2.70;99.90
16327;DHT22;34812;49.846;9.610;2023-03-01T02:59:30;-2.70;99.90
16327;DHT22;34812;49.846;9.610;2023-03-01T03:00:35;-2.70;99.90
16327;DHT22;34812;49.846;9.610;2023-03-01T03:01:40;-2.70;99.90
16327;DHT22;34812;49.846;9.610;2023-03-01T03:02:42;-2.70;99.90
16327;DHT22;34812;49.846;9.610;2023-03-01T03:03:55;-2.70;99.90
16327;DHT22;34812;49.846;9.610;2023-03-01T03:04:55;-2.70;99.90
16327;DHT22;34812;49.846;9.610;2023-03-01T03:05:58;-2.70;99.90
16327;DHT22;34812;49.846;9.610;2023-03-01T03:06:59;-2.70;99.90
16327;DHT22;34812;49.846;9.610;2023-03-01T03:08:02;-2.70;99.90
16327;DHT22;34812;49.846;9.610;2023-03-01T03:09:06;-2.70;99.90
16327;DHT22;34812;49.846;9.610;2023-03-01T03:10:10;-2.70;99.90
16327;DHT22;34812;49.846;9.610;2023-03-01T03:11:11;-2.70;99.90
16327;DHT22;34812;49.846;9.610;2023-03-01T03:12:13;-2.70;99.90
16327;DHT22;34812;49.846;9.610;2023-03-01T03:13:15;-2.70;99.90
16327;DHT22;34812;49.846;9.610;2023-03-01T03:14:17;-2.70;99.90
16327;DHT22;34812;49.846;9.610;2023-03-01T03:15:23;-2.70;99.90
16327;DHT22;34812;49.846;9.610;2023-03-01T03:16:25;-2.60;99.90
16327;DHT22;34812;49.846;9.610;2023-03-01T03:17:26;-2.60;99.90
16327;DHT22;34812;49.846;9.610;2023-03-01T03:18:27;-2.60;99.90
16327;DHT22;34812;49.846;9.610;2023-03-01T03:19:28;-2.60;99.90
16327;DHT22;34812;49.846;9.610;2023-03-01T03:20:30;-2.50;99.90
16327;DHT22;34812;49.846;9.610;2023-03-01T03:21:32;-2.50;99.90
16327;DHT22;34812;49.846;9.610;2023-03-01T03:22:34;-2.50;99.90
16327;DHT22;34812;49.846;9.610;2023-03-01T03:23:35;-2.50;99.90
16327;DHT22;34812;49.846;9.610;2023-03-01T03:24:36;-2.50;99.90
16327;DHT22;34812;49.846;9.610;2023-03-01T03:25:38;-2.50;99.90
16327;DHT22;34812;49.846;9.610;2023-03-01T03:26:40;-2.50;99.90
16327;DHT22;34812;49.846;9.610;2023-03-01T03:27:43;-2.60;99.90
16327;DHT22;34812;49.846;9.610;2023-03-01T03:28:45;-2.60;99.90
16327;DHT22;34812;49.846;9.610;2023-03-01T03:29:47;-2.60;99.90
16327;DHT22;34812;49.846;9.610;2023-03-01T03:30:50;-2.60;99.90
16327;DHT22;34812;49.846;9.610;2023-03-01T03:31:51;-2.60;99.90
16327;DHT22;34812;49.846;9.610;2023-03-01T03:32:53;-2.60;99.90
16327;DHT22;34812;49.846;9.610;2023-03-01T03:33:54;-2.60;99.90
16327;DHT22;34812;49.846;9.610;2023-03-01T03:34:56;-2.60;99.90
16327;DHT22;34812;49.846;9.610;2023-03-01T03:35:57;-2.60;99.90
16327;DHT22;34812;49.846;9.610;2023-03-01T03:36:59;-2.50;99.90
16327;DHT22;34812;49.846;9.610;2023-03-01T03:38:03;-2.50;99.90
16327;DHT22;34812;49.846;9.610;2023-03-01T03:39:06;-2.50;99.90
16327;DHT22;34812;49.846;9.610;2023-03-01T03:40:08;-2.60;99.90
16327;DHT22;34812;49.846;9.610;2023-03-01T03:41:16;-2.60;99.90
16327;DHT22;34812;49.846;9.610;2023-03-01T03:42:17;-2.60;99.90
16327;DHT22;34812;49.846;9.610;2023-03-01T03:43:20;-2.60;99.90
16327;DHT22;34812;49.846;9.610;2023-03-01T03:44:21;-2.60;99.90
16327;DHT22;34812;49.846;9.610;2023-03-01T03:45:23;-2.60;99.90
16327;DHT22;34812;49.846;9.610;2023-03-01T03:46:25;-2.60;99.90
16327;DHT22;34812;49.846;9.610;2023-03-01T03:47:27;-2.60;99.90
16327;DHT22;34812;49.846;9.610;2023-03-01T03:48:28;-2.60;99.90
16327;DHT22;34812;49.846;9.610;2023-03-01T03:49:30;-2.50;99.90
16327;DHT22;34812;49.846;9.610;2023-03-01T03:50:30;-2.50;99.90
16327;DHT22;34812;49.846;9.610;2023-03-01T03:51:32;-2.50;99.90
16327;DHT22;34812;49.846;9.610;2023-03-01T03:52:33;-2.40;99.90
16327;DHT22;34812;49.846;9.610;2023-03-01T03:53:35;-2.40;99.90
16327;DHT22;34812;49.846;9.610;2023-03-01T03:54:35;-2.40;99.90
16327;DHT22;34812;49.846;9.610;2023-03-01T03:55:37;-2.40;99.90
16327;DHT22;34812;49.846;9.610;2023-03-01T03:56:39;-2.40;99.90
16327;DHT22;34812;49.846;9.610;2023-03-01T03:57:41;-2.50;99.90
16327;DHT22;34812;49.846;9.610;2023-03-01T03:58:42;-2.50;99.90
16327;DHT22;34812;49.846;9.610;2023-03-01T03:59:44;-2.50;99.90
16327;DHT22;34812;49.846;9.610;2023-03-01T04:00:46;-2.50;99.90
16327;DHT22;34812;49.846;9.610;2023-03-01T04:01:49;-2.50;99.90
16327;DHT22;34812;49.846;9.610;2023-03-01T04:02:51;-2.50;99.90
16327;DHT22;34812;49.846;9.610;2023-03-01T04:03:52;-2.50;99.90
16327;DHT22;34812;49.846;9.610;2023-03-01T04:04:54;-2.50;99.90
16327;DHT22;34812;49.846;9.610;2023-03-01T04:05:57;-2.60;99.90
16327;DHT22;34812;49.846;9.610;2023-03-01T04:06:59;-2.60;99.90
16327;DHT22;34812;49.846;9.610;2023-03-01T04:08:00;-2.60;99.90
16327;DHT22;34812;49.846;9.610;2023-03-01T04:09:07;-2.60;99.90
16327;DHT22;34812;49.846;9.610;2023-03-01T04:10:11;-2.70;99.90
16327;DHT22;34812;49.846;9.610;2023-03-01T04:11:12;-2.70;99.90
16327;DHT22;34812;49.846;9.610;2023-03-01T04:12:29;-2.70;99.90
16327;DHT22;34812;49.846;9.610;2023-03-01T04:13:30;-2.60;99.90
16327;DHT22;34812;49.846;9.610;2023-03-01T04:14:32;-2.60;99.90
16327;DHT22;34812;49.846;9.610;2023-03-01T04:15:34;-2.60;99.90
16327;DHT22;34812;49.846;9.610;2023-03-01T04:16:36;-2.60;99.90
16327;DHT22;34812;49.846;9.610;2023-03-01T04:17:38;-2.60;99.90
16327;DHT22;34812;49.846;9.610;2023-03-01T04:18:40;-2.60;99.90
16327;DHT22;34812;49.846;9.610;2023-03-01T04:19:41;-2.60;99.90
16327;DHT22;34812;49.846;9.610;2023-03-01T04:20:45;-2.60;99.90
16327;DHT22;34812;49.846;9.610;2023-03-01T04:21:45;-2.60;99.90
16327;DHT22;34812;49.846;9.610;2023-03-01T04:22:47;-2.60;99.90
16327;DHT22;34812;49.846;9.610;2023-03-01T04:23:48;-2.60;99.90
16327;DHT22;34812;49.846;9.610;2023-03-01T04:24:52;-2.60;99.90
16327;DHT22;34812;49.846;9.610;2023-03-01T04:25:55;-2.60;99.90
16327;DHT22;34812;49.846;9.610;2023-03-01T04:26:57;-2.60;99.90
16327;DHT22;34812;49.846;9.610;2023-03-01T04:27:58;-2.60;99.90
16327;DHT22;34812;49.846;9.610;2023-03-01T04:28:59;-2.60;99.90
16327;DHT22;34812;49.846;9.610;2023-03-01T04:30:02;-2.50;99.90
16327;DHT22;34812;49.846;9.610;2023-03-01T04:31:05;-2.50;99.90
16327;DHT22;34812;49.846;9.610;2023-03-01T04:32:13;-2.50;99.90
16327;DHT22;34812;49.846;9.610;2023-03-01T04:33:18;-2.40;99.90
16327;DHT22;34812;49.846;9.610;2023-03-01T04:34:20;-2.40;99.90
16327;DHT22;34812;49.846;9.610;2023-03-01T04:35:20;-2.40;99.90
16327;DHT22;34812;49.846;9.610;2023-03-01T04:36:24;-2.40;99.90
16327;DHT22;34812;49.846;9.610;2023-03-01T04:37:25;-2.40;99.90
16327;DHT22;34812;49.846;9.610;2023-03-01T04:38:27;-2.30;99.90
16327;DHT22;34812;49.846;9.610;2023-03-01T04:39:27;-2.30;99.90
16327;DHT22;34812;49.846;9.610;2023-03-01T04:40:29;-2.30;99.90
16327;DHT22;34812;49.846;9.610;2023-03-01T04:41:30;-2.30;99.90
16327;DHT22;34812;49.846;9.610;2023-03-01T04:42:32;-2.30;99.90
16327;DHT22;34812;49.846;9.610;2023-03-01T04:43:33;-2.30;99.90
16327;DHT22;34812;49.846;9.610;2023-03-01T04:44:35;-2.30;99.90
16327;DHT22;34812;49.846;9.610;2023-03-01T04:45:36;-2.30;99.90
16327;DHT22;34812;49.846;9.610;2023-03-01T04:46:38;-2.20;99.90
16327;DHT22;34812;49.846;9.610;2023-03-01T04:47:40;-2.20;99.90
16327;DHT22;34812;49.846;9.610;2023-03-01T04:48:45;-2.20;99.90
16327;DHT22;34812;49.846;9.610;2023-03-01T04:49:47;-2.20;99.90
16327;DHT22;34812;49.846;9.610;2023-03-01T04:50:48;-2.20;99.90
16327;DHT22;34812;49.846;9.610;2023-03-01T04:51:49;-2.20;99.90
16327;DHT22;34812;49.846;9.610;2023-03-01T04:52:51;-2.20;99.90
16327;DHT22;34812;49.846;9.610;2023-03-01T04:53:52;-2.10;99.90
16327;DHT22;34812;49.846;9.610;2023-03-01T04:54:54;-2.10;99.90
16327;DHT22;34812;49.846;9.610;2023-03-01T04:55:55;-2.10;99.90
16327;DHT22;34812;49.846;9.610;2023-03-01T04:56:57;-2.10;99.90
16327;DHT22;34812;49.846;9.610;2023-03-01T04:57:58;-2.10;99.90
16327;DHT22;34812;49.846;9.610;2023-03-01T04:59:00;-2.10;99.90
16327;DHT22;34812;49.846;9.610;2023-03-01T05:00:01;-2.10;99.90
16327;DHT22;34812;49.846;9.610;2023-03-01T05:01:20;-2.00;99.90
16327;DHT22;34812;49.846;9.610;2023-03-01T05:02:21;-2.10;99.90
16327;DHT22;34812;49.846;9.610;2023-03-01T05:03:23;-2.10;99.90
16327;DHT22;34812;49.846;9.610;2023-03-01T05:04:25;-2.10;99.90
16327;DHT22;34812;49.846;9.610;2023-03-01T05:05:28;-2.10;99.90
16327;DHT22;34812;49.846;9.610;2023-03-01T05:06:29;-2.00;99.90
16327;DHT22;34812;49.846;9.610;2023-03-01T05:07:31;-2.00;99.90
16327;DHT22;34812;49.846;9.610;2023-03-01T05:08:32;-2.00;99.90
16327;DHT22;34812;49.846;9.610;2023-03-01T05:09:34;-2.00;99.90
16327;DHT22;34812;49.846;9.610;2023-03-01T05:10:36;-2.00;99.90
16327;DHT22;34812;49.846;9.610;2023-03-01T05:11:39;-2.00;99.90
16327;DHT22;34812;49.846;9.610;2023-03-01T05:12:40;-2.00;99.90
16327;DHT22;34812;49.846;9.610;2023-03-01T05:13:41;-2.00;99.90
16327;DHT22;34812;49.846;9.610;2023-03-01T05:14:43;-2.00;99.90
16327;DHT22;34812;49.846;9.610;2023-03-01T05:15:44;-1.90;99.90
16327;DHT22;34812;49.846;9.610;2023-03-01T05:16:46;-1.90;99.90
16327;DHT22;34812;49.846;9.610;2023-03-01T05:17:47;-1.90;99.90
16327;DHT22;34812;49.846;9.610;2023-03-01T05:18:48;-1.90;99.90
16327;DHT22;34812;49.846;9.610;2023-03-01T05:19:52;-1.90;99.90
16327;DHT22;34812;49.846;9.610;2023-03-01T05:21:02;-1.90;99.90
16327;DHT22;34812;49.846;9.610;2023-03-01T05:22:04;-1.80;99.90
16327;DHT22;34812;49.846;9.610;2023-03-01T05:23:05;-1.80;99.90
16327;DHT22;34812;49.846;9.610;2023-03-01T05:24:08;-1.80;99.90
16327;DHT22;34812;49.846;9.610;2023-03-01T05:25:12;-1.80;99.90
16327;DHT22;34812;49.846;9.610;2023-03-01T05:26:15;-1.80;99.90
16327;DHT22;34812;49.846;9.610;2023-03-01T05:27:17;-1.80;99.90
16327;DHT22;34812;49.846;9.610;2023-03-01T05:28:19;-1.80;99.90
16327;DHT22;34812;49.846;9.610;2023-03-01T05:29:22;-1.80;99.90
16327;DHT22;34812;49.846;9.610;2023-03-01T05:30:25;-1.80;99.90
16327;DHT22;34812;49.846;9.610;2023-03-01T05:31:28;-1.80;99.90
16327;DHT22;34812;49.846;9.610;2023-03-01T05:32:28;-1.80;99.90
16327;DHT22;34812;49.846;9.610;2023-03-01T05:33:32;-1.80;99.90
16327;DHT22;34812;49.846;9.610;2023-03-01T05:34:34;-1.70;99.90
16327;DHT22;34812;49.846;9.610;2023-03-01T05:35:39;-1.80;99.90
16327;DHT22;34812;49.846;9.610;2023-03-01T05:36:39;-1.70;99.90
16327;DHT22;34812;49.846;9.610;2023-03-01T05:37:42;-1.70;99.90
16327;DHT22;34812;49.846;9.610;2023-03-01T05:38:43;-1.70;99.90
16327;DHT22;34812;49.846;9.610;2023-03-01T05:39:45;-1.70;99.90
16327;DHT22;34812;49.846;9.610;2023-03-01T05:40:47;-1.70;99.90
16327;DHT22;34812;49.846;9.610;2023-03-01T05:41:52;-1.70;99.90
16327;DHT22;34812;49.846;9.610;2023-03-01T05:42:55;-1.70;99.90
16327;DHT22;34812;49.846;9.610;2023-03-01T05:43:57;-1.70;99.90
16327;DHT22;34812;49.846;9.610;2023-03-01T05:44:57;-1.70;99.90
16327;DHT22;34812;49.846;9.610;2023-03-01T05:45:59;-1.80;99.90
16327;DHT22;34812;49.846;9.610;2023-03-01T05:47:00;-1.80;99.90
16327;DHT22;34812;49.846;9.610;2023-03-01T05:48:02;-1.80;99.90
16327;DHT22;34812;49.846;9.610;2023-03-01T05:49:03;-1.80;99.90
16327;DHT22;34812;49.846;9.610;2023-03-01T05:50:06;-1.70;99.90
16327;DHT22;34812;49.846;9.610;2023-03-01T05:51:09;-1.70;99.90
16327;DHT22;34812;49.846;9.610;2023-03-01T05:52:10;-1.70;99.90
16327;DHT22;34812;49.846;9.610;2023-03-01T05:53:13;-1.60;99.90
16327;DHT22;34812;49.846;9.610;2023-03-01T05:54:15;-1.50;99.90
16327;DHT22;34812;49.846;9.610;2023-03-01T05:55:17;-1.50;99.90
16327;DHT22;34812;49.846;9.610;2023-03-01T05:56:19;-1.40;99.90
16327;DHT22;34812;49.846;9.610;2023-03-01T05:57:22;-1.40;99.90
16327;DHT22;34812;49.846;9.610;2023-03-01T05:58:24;-1.40;99.90
16327;DHT22;34812;49.846;9.610;2023-03-01T05:59:26;-1.40;99.90
16327;DHT22;34812;49.846;9.610;2023-03-01T06:00:28;-1.40;99.90
16327;DHT22;34812;49.846;9.610;2023-03-01T06:01:30;-1.40;99.90
16327;DHT22;34812;49.846;9.610;2023-03-01T06:02:31;-1.40;99.90
16327;DHT22;34812;49.846;9.610;2023-03-01T06:03:32;-1.40;99.90
16327;DHT22;34812;49.846;9.610;2023-03-01T06:04:33;-1.40;99.90
16327;DHT22;34812;49.846;9.610;2023-03-01T06:05:35;-1.40;99.90
16327;DHT22;34812;49.846;9.610;2023-03-01T06:06:37;-1.40;99.90
16327;DHT22;34812;49.846;9.610;2023-03-01T06:07:40;-1.40;99.90
16327;DHT22;34812;49.846;9.610;2023-03-01T06:08:41;-1.30;99.90
16327;DHT22;34812;49.846;9.610;2023-03-01T06:09:43;-1.30;99.90
16327;DHT22;34812;49.846;9.610;2023-03-01T06:10:43;-1.30;99.90
16327;DHT22;34812;49.846;9.610;2023-03-01T06:11:45;-1.30;99.90
16327;DHT22;34812;49.846;9.610;2023-03-01T06:12:46;-1.30;99.90
16327;DHT22;34812;49.846;9.610;2023-03-01T06:13:48;-1.30;99.90
16327;DHT22;34812;49.846;9.610;2023-03-01T06:14:49;-1.20;99.90
16327;DHT22;34812;49.846;9.610;2023-03-01T06:15:51;-1.20;99.90
16327;DHT22;34812;49.846;9.610;2023-03-01T06:16:52;-1.20;99.90
16327;DHT22;34812;49.846;9.610;2023-03-01T06:17:55;-1.20;99.90
16327;DHT22;34812;49.846;9.610;2023-03-01T06:18:57;-1.20;99.90
16327;DHT22;34812;49.846;9.610;2023-03-01T06:19:58;-1.10;99.90
16327;DHT22;34812;49.846;9.610;2023-03-01T06:21:00;-1.10;99.90
16327;DHT22;34812;49.846;9.610;2023-03-01T06:22:02;-1.10;99.90
16327;DHT22;34812;49.846;9.610;2023-03-01T06:23:04;-1.00;99.90
16327;DHT22;34812;49.846;9.610;2023-03-01T06:24:06;-1.00;99.90
16327;DHT22;34812;49.846;9.610;2023-03-01T06:25:09;-1.00;99.90
16327;DHT22;34812;49.846;9.610;2023-03-01T06:26:11;-0.90;99.90
16327;DHT22;34812;49.846;9.610;2023-03-01T06:27:12;-0.90;99.90
16327;DHT22;34812;49.846;9.610;2023-03-01T06:28:13;-0.90;99.90
16327;DHT22;34812;49.846;9.610;2023-03-01T06:29:14;-0.90;99.90
16327;DHT22;34812;49.846;9.610;2023-03-01T06:30:17;-0.90;99.90
16327;DHT22;34812;49.846;9.610;2023-03-01T06:31:18;-0.90;99.90
16327;DHT22;34812;49.846;9.610;2023-03-01T06:32:20;-0.90;99.90
16327;DHT22;34812;49.846;9.610;2023-03-01T06:33:21;-0.90;99.90
16327;DHT22;34812;49.846;9.610;2023-03-01T06:34:24;-0.80;99.90
16327;DHT22;34812;49.846;9.610;2023-03-01T06:35:26;-0.80;99.90
16327;DHT22;34812;49.846;9.610;2023-03-01T06:36:30;-0.90;99.90